Time;durP1;ratioP1;P1;durP2;ratioP2;P2;SDS_P1;SDS_P2;PMS_P1;PMS_P2;Temp;Humidity;BMP_temperature;BMP_pressure;BME280_temperature;BME280_humidity;BME280_pressure;Samples;Min_cycle;Max_cycle;Signal;HPM_P1;HPM_P2
2021/07/26 00:00:44;;;;;;;;;;;;;;;21.17;54.93;100446.09;1620314;87;20765;-73
2021/07/26 00:03:12;;;;;;;;;;;;;;;21.15;54.98;100445.34;1621942;87;20096;-73
2021/07/26 00:05:38;;;;;;;;;;;;;;;21.12;55.03;100442.44;1621379;86;20195;-73
2021/07/26 00:08:04;;;;;;;;;;;;;;;21.11;55.09;100444.69;1617557;87;20174;-73
2021/07/26 00:10:30;;;;;;;;;;;;;;;21.10;55.10;100436.42;1615639;87;20110;-73
2021/07/26 00:12:56;;;;;;;;;;;;;;;21.07;55.11;100431.36;1618334;87;20282;-73
2021/07/26 00:15:37;;;;;;;;;;;;;;;21.05;55.15;100423.19;1612474;87;20222;-73
2021/07/26 00:18:03;;;;;;;;;;;;;;;21.04;55.22;100424.13;1604719;88;20208;-74
2021/07/26 00:20:29;;;;;;;;;;;;;;;21.01;55.25;100421.22;1573809;88;20214;-74
2021/07/26 00:22:56;;;;;;;;;;;;;;;20.98;55.28;100421.88;1594188;88;20262;-74
2021/07/26 00:25:22;;;;;;;;;;;;;;;20.95;55.32;100426.02;1583493;88;20221;-74
2021/07/26 00:27:48;;;;;;;;;;;;;;;20.91;55.37;100425.36;1586972;88;20244;-74
2021/07/26 00:30:14;;;;;;;;;;;;;;;20.88;55.42;100425.55;1581044;88;20193;-73
2021/07/26 00:32:40;;;;;;;;;;;;;;;20.84;55.50;100429.30;1606174;87;20166;-73
2021/07/26 00:35:15;;;;;;;;;;;;;;;20.81;55.58;100425.55;1615446;87;20196;-74
2021/07/26 00:37:41;;;;;;;;;;;;;;;20.77;55.63;100418.82;1611286;87;20807;-74
2021/07/26 00:40:09;;;;;;;;;;;;;;;20.73;55.67;100416.84;1612753;88;20226;-74
2021/07/26 00:42:36;;;;;;;;;;;;;;;20.69;55.68;100410.56;1617053;87;20179;-74
2021/07/26 00:45:04;;;;;;;;;;;;;;;20.63;55.71;100413.56;1617074;88;20130;-74
2021/07/26 00:47:31;;;;;;;;;;;;;;;20.55;55.78;100411.86;1616814;88;20231;-74
2021/07/26 00:49:57;;;;;;;;;;;;;;;20.48;55.87;100409.61;1617156;88;20175;-74
2021/07/26 00:52:24;;;;;;;;;;;;;;;20.42;55.92;100409.97;1617244;88;20277;-74
2021/07/26 00:54:50;;;;;;;;;;;;;;;20.38;55.97;100417.66;1616934;87;20477;-74
2021/07/26 00:57:16;;;;;;;;;;;;;;;20.35;56.08;100419.13;1618756;87;20115;-74
2021/07/26 00:59:42;;;;;;;;;;;;;;;20.32;56.12;100417.14;1616941;88;20197;-73
2021/07/26 01:02:08;;;;;;;;;;;;;;;20.29;56.13;100427.83;1616249;87;20314;-73
2021/07/26 01:04:40;;;;;;;;;;;;;;;20.23;56.18;100425.12;1617490;88;20214;-73
2021/07/26 01:07:07;;;;;;;;;;;;;;;20.20;56.25;100423.15;1616359;88;20150;-73
2021/07/26 01:09:33;;;;;;;;;;;;;;;20.14;56.30;100421.27;1617208;87;20138;-73
2021/07/26 01:12:00;;;;;;;;;;;;;;;20.10;56.39;100426.78;1616478;87;20501;-73
2021/07/26 01:14:28;;;;;;;;;;;;;;;20.08;56.46;100424.25;1616798;88;20229;-73
2021/07/26 01:16:53;;;;;;;;;;;;;;;20.04;56.49;100424.05;1616596;88;20244;-73
2021/07/26 01:19:20;;;;;;;;;;;;;;;20.00;56.51;100423.00;1616894;88;20238;-74
2021/07/26 01:21:45;;;;;;;;;;;;;;;19.95;56.58;100423.27;1617075;88;20568;-74
2021/07/26 01:24:12;;;;;;;;;;;;;;;19.89;56.68;100422.77;1615087;88;20202;-74
2021/07/26 01:26:38;;;;;;;;;;;;;;;19.84;56.79;100419.09;1616778;87;20205;-74
2021/07/26 01:29:07;;;;;;;;;;;;;;;19.79;56.86;100423.30;1616313;87;20203;-74
2021/07/26 01:31:33;;;;;;;;;;;;;;;19.77;56.92;100429.56;1627519;87;20203;-73
2021/07/26 01:34:00;;;;;;;;;;;;;;;19.70;56.97;100430.41;1637276;87;20112;-73
2021/07/26 01:36:26;;;;;;;;;;;;;;;19.67;57.03;100440.23;1642408;86;20131;-73
2021/07/26 01:38:53;;;;;;;;;;;;;;;19.61;57.13;100434.86;1667708;85;20125;-74
2021/07/26 01:41:23;;;;;;;;;;;;;;;19.58;57.18;100438.97;1667688;86;20140;-74
2021/07/26 01:44:13;;;;;;;;;;;;;;;19.56;57.29;100445.23;1667507;85;20091;-74
2021/07/26 01:46:26;;;;;;;;;;;;;;;19.52;57.27;100441.93;1666895;85;20129;-74
2021/07/26 01:49:17;;;;;;;;;;;;;;;19.48;57.33;100439.91;1666219;86;20208;-74
2021/07/26 01:51:44;;;;;;;;;;;;;;;19.42;57.39;100437.63;1664631;85;20530;-73
2021/07/26 01:54:12;;;;;;;;;;;;;;;19.36;57.51;100437.13;1666956;84;20236;-73
2021/07/26 01:56:39;;;;;;;;;;;;;;;19.32;57.61;100435.12;1633269;86;20185;-73
2021/07/26 01:59:07;;;;;;;;;;;;;;;19.28;57.59;100430.98;1666183;85;20189;-73
2021/07/26 02:01:33;;;;;;;;;;;;;;;19.25;57.67;100435.08;1666574;86;20212;-73
2021/07/26 02:03:59;;;;;;;;;;;;;;;19.22;57.69;100431.35;1665888;85;20216;-73
2021/07/26 02:06:27;;;;;;;;;;;;;;;19.17;57.72;100437.30;1666463;85;20172;-73
2021/07/26 02:08:53;;;;;;;;;;;;;;;19.14;57.79;100435.70;1666426;86;20182;-73
2021/07/26 02:11:22;;;;;;;;;;;;;;;19.12;57.84;100440.17;1666266;86;20302;-73
2021/07/26 02:13:49;;;;;;;;;;;;;;;19.07;57.86;100436.95;1667280;85;20221;-73
2021/07/26 02:16:15;;;;;;;;;;;;;;;19.02;58.01;100449.46;1666717;85;20141;-73
2021/07/26 02:18:42;;;;;;;;;;;;;;;18.99;58.08;100443.07;1666304;84;20306;-73
2021/07/26 02:21:09;;;;;;;;;;;;;;;18.98;58.17;100451.02;1666176;85;20256;-73
2021/07/26 02:23:35;;;;;;;;;;;;;;;18.95;58.19;100445.47;1666659;85;20195;-73
2021/07/26 02:26:02;;;;;;;;;;;;;;;18.93;58.24;100447.79;1666523;85;20191;-74
2021/07/26 02:28:28;;;;;;;;;;;;;;;18.90;58.32;100449.27;1666497;86;20208;-74
2021/07/26 02:30:54;;;;;;;;;;;;;;;18.86;58.31;100449.89;1666338;85;20237;-74
2021/07/26 02:33:20;;;;;;;;;;;;;;;18.82;58.35;100444.42;1666122;85;20739;-73
2021/07/26 02:35:46;;;;;;;;;;;;;;;18.77;58.46;100442.05;1666456;85;20199;-73
2021/07/26 02:38:12;;;;;;;;;;;;;;;18.74;58.53;100448.76;1666355;86;21057;-73
2021/07/26 02:40:38;;;;;;;;;;;;;;;18.74;58.61;100450.53;1665841;86;20199;-73
2021/07/26 02:43:04;;;;;;;;;;;;;;;18.72;58.62;100450.61;1666341;85;20231;-73
2021/07/26 02:45:30;;;;;;;;;;;;;;;18.72;58.67;100455.00;1666316;85;20261;-73
2021/07/26 02:48:03;;;;;;;;;;;;;;;18.69;58.70;100456.04;1665894;86;20244;-73
2021/07/26 02:50:30;;;;;;;;;;;;;;;18.67;58.79;100456.58;1665769;85;20237;-73
2021/07/26 02:53:01;;;;;;;;;;;;;;;18.65;58.84;100458.44;1666563;85;20188;-73
2021/07/26 02:55:30;;;;;;;;;;;;;;;18.63;58.90;100460.28;1666023;85;20259;-74
2021/07/26 02:57:57;;;;;;;;;;;;;;;18.59;58.98;100454.79;1665956;85;20233;-73
2021/07/26 03:00:27;;;;;;;;;;;;;;;18.58;59.09;100450.94;1630987;86;20212;-73
2021/07/26 03:02:53;;;;;;;;;;;;;;;18.57;59.10;100454.02;1665717;85;20871;-73
2021/07/26 03:05:19;;;;;;;;;;;;;;;18.57;59.14;100459.26;1666245;85;20219;-73
2021/07/26 03:07:46;;;;;;;;;;;;;;;18.56;59.10;100460.19;1665561;86;20197;-73
2021/07/26 03:10:11;;;;;;;;;;;;;;;18.50;59.26;100456.56;1666060;85;20609;-73
2021/07/26 03:12:37;;;;;;;;;;;;;;;18.48;59.43;100464.97;1666079;85;20291;-73
2021/07/26 03:15:05;;;;;;;;;;;;;;;18.46;59.40;100461.58;1666096;85;20263;-73
2021/07/26 03:17:31;;;;;;;;;;;;;;;18.41;59.47;100467.05;1667645;84;20161;-73
2021/07/26 03:20:00;;;;;;;;;;;;;;;18.41;59.51;100464.43;1667099;85;20137;-73
2021/07/26 03:23:01;;;;;;;;;;;;;;;18.40;59.66;100462.73;1662643;85;20156;-73
2021/07/26 03:25:28;;;;;;;;;;;;;;;18.41;59.70;100459.19;1653933;86;20212;-73
2021/07/26 03:27:55;;;;;;;;;;;;;;;18.43;59.77;100461.27;1660416;85;20176;-73
2021/07/26 03:30:21;;;;;;;;;;;;;;;18.41;59.80;100459.66;1663330;85;20543;-73
2021/07/26 03:32:48;;;;;;;;;;;;;;;18.42;59.90;100460.89;1664770;85;20222;-73
2021/07/26 03:35:15;;;;;;;;;;;;;;;18.45;59.96;100467.28;1656958;85;20212;-73
2021/07/26 03:37:45;;;;;;;;;;;;;;;18.47;59.97;100457.57;1668383;85;20271;-73
2021/07/26 03:40:11;;;;;;;;;;;;;;;18.51;59.99;100453.02;1665746;85;20137;-73
2021/07/26 03:42:39;;;;;;;;;;;;;;;18.51;60.00;100447.33;1664468;85;100486;-73
2021/07/26 03:45:08;;;;;;;;;;;;;;;18.53;60.06;100451.17;1662299;85;20158;-73
2021/07/26 03:47:34;;;;;;;;;;;;;;;18.55;60.14;100451.09;1665321;85;20184;-73
2021/07/26 03:50:00;;;;;;;;;;;;;;;18.59;60.15;100453.94;1671161;85;20203;-74
2021/07/26 03:52:28;;;;;;;;;;;;;;;18.62;60.18;100453.81;1668020;85;20204;-74
2021/07/26 03:54:57;;;;;;;;;;;;;;;18.66;60.19;100450.96;1662163;85;20226;-74
2021/07/26 03:57:23;;;;;;;;;;;;;;;18.70;60.22;100449.88;1664617;85;20209;-73
2021/07/26 03:59:49;;;;;;;;;;;;;;;18.71;60.32;100450.26;1668406;85;20229;-73
2021/07/26 04:02:15;;;;;;;;;;;;;;;18.76;60.45;100450.84;1670182;85;20259;-73
2021/07/26 04:04:42;;;;;;;;;;;;;;;18.83;60.54;100452.20;1660530;85;20224;-73
2021/07/26 04:07:15;;;;;;;;;;;;;;;18.90;60.56;100446.18;1671491;85;20222;-73
2021/07/26 04:09:42;;;;;;;;;;;;;;;18.96;60.60;100448.48;1663412;85;20187;-73
2021/07/26 04:12:09;;;;;;;;;;;;;;;19.04;60.65;100447.60;1670794;85;20229;-73
2021/07/26 04:14:38;;;;;;;;;;;;;;;19.10;60.60;100440.72;1666837;85;20225;-73
2021/07/26 04:17:06;;;;;;;;;;;;;;;19.17;60.62;100439.93;1659352;85;20504;-74
2021/07/26 04:19:33;;;;;;;;;;;;;;;19.24;60.65;100445.19;1669250;85;20199;-74
2021/07/26 04:21:59;;;;;;;;;;;;;;;19.31;60.67;100437.83;1663298;85;20272;-74
2021/07/26 04:24:25;;;;;;;;;;;;;;;19.37;60.70;100436.19;1668418;85;20189;-74
2021/07/26 04:26:53;;;;;;;;;;;;;;;19.44;60.75;100437.55;1662151;85;20210;-74
2021/07/26 04:29:21;;;;;;;;;;;;;;;19.53;60.81;100437.53;1660803;85;20224;-74
2021/07/26 04:31:50;;;;;;;;;;;;;;;19.61;60.84;100432.23;1653432;85;20215;-74
2021/07/26 04:34:17;;;;;;;;;;;;;;;19.72;60.88;100437.73;1649862;86;20213;-74
2021/07/26 04:36:43;;;;;;;;;;;;;;;19.82;60.90;100430.99;1654659;86;20209;-74
2021/07/26 04:39:09;;;;;;;;;;;;;;;19.93;60.91;100420.34;1656850;86;20152;-74
2021/07/26 04:41:35;;;;;;;;;;;;;;;20.03;60.96;100421.05;1659995;86;20239;-74
2021/07/26 04:44:02;;;;;;;;;;;;;;;20.12;61.00;100417.88;1657702;86;20212;-74
2021/07/26 04:46:28;;;;;;;;;;;;;;;20.22;61.17;100416.03;1657462;85;20181;-74
2021/07/26 04:48:56;;;;;;;;;;;;;;;20.37;61.21;100422.97;1659822;86;20213;-74
2021/07/26 04:51:22;;;;;;;;;;;;;;;20.55;61.20;100421.06;1660829;86;20346;-74
2021/07/26 04:53:48;;;;;;;;;;;;;;;20.71;61.16;100421.82;1659217;86;20201;-73
2021/07/26 04:56:14;;;;;;;;;;;;;;;20.83;61.21;100411.84;1653920;86;20318;-74
2021/07/26 04:58:41;;;;;;;;;;;;;;;20.97;61.16;100415.78;1651365;86;33315;-73
2021/07/26 05:01:07;;;;;;;;;;;;;;;21.10;61.12;100419.33;1657394;86;20770;-74
2021/07/26 05:03:33;;;;;;;;;;;;;;;21.21;61.08;100425.27;1648623;86;20180;-74
2021/07/26 05:05:59;;;;;;;;;;;;;;;21.34;61.06;100428.78;1652438;86;20187;-73
2021/07/26 05:08:25;;;;;;;;;;;;;;;21.45;61.03;100425.47;1649937;86;20325;-74
2021/07/26 05:10:51;;;;;;;;;;;;;;;21.55;60.95;100425.25;1656973;86;20207;-74
2021/07/26 05:13:17;;;;;;;;;;;;;;;21.65;61.04;100418.45;1647353;86;20206;-74
2021/07/26 05:15:46;;;;;;;;;;;;;;;21.85;61.02;100417.59;1659260;86;20212;-74
2021/07/26 05:18:12;;;;;;;;;;;;;;;22.17;61.11;100413.70;1647507;85;20819;-74
2021/07/26 05:20:38;;;;;;;;;;;;;;;22.52;61.01;100407.80;1653944;86;20308;-74
2021/07/26 05:23:09;;;;;;;;;;;;;;;22.88;60.61;100405.24;1653172;86;20289;-74
2021/07/26 05:25:45;;;;;;;;;;;;;;;23.22;60.63;100405.01;1657544;86;20236;-74
2021/07/26 05:28:12;;;;;;;;;;;;;;;23.65;60.80;100402.73;1657878;86;20169;-73
2021/07/26 05:30:44;;;;;;;;;;;;;;;24.07;60.30;100397.34;1651760;86;20157;-73
2021/07/26 05:33:10;;;;;;;;;;;;;;;24.45;60.19;100404.63;1652333;85;20466;-73
2021/07/26 05:35:36;;;;;;;;;;;;;;;24.77;60.14;100400.81;1666389;85;20153;-73
2021/07/26 05:38:05;;;;;;;;;;;;;;;25.12;59.94;100398.87;1671810;85;20710;-73
2021/07/26 05:40:32;;;;;;;;;;;;;;;25.42;59.60;100403.98;1672261;85;20153;-73
2021/07/26 05:42:58;;;;;;;;;;;;;;;25.63;59.40;100406.17;1668718;85;20136;-73
2021/07/26 05:45:24;;;;;;;;;;;;;;;25.87;59.34;100412.14;1667990;85;20140;-73
2021/07/26 05:47:50;;;;;;;;;;;;;;;26.14;59.26;100406.31;1671345;85;20761;-73
2021/07/26 05:50:19;;;;;;;;;;;;;;;26.31;58.98;100417.69;1669559;84;20151;-73
2021/07/26 05:52:47;;;;;;;;;;;;;;;26.38;58.89;100412.22;1670719;85;20200;-73
2021/07/26 05:55:14;;;;;;;;;;;;;;;26.62;58.78;100408.41;1670895;85;20193;-73
2021/07/26 05:57:45;;;;;;;;;;;;;;;26.74;58.62;100410.49;1668152;85;20163;-74
2021/07/26 06:00:11;;;;;;;;;;;;;;;27.01;58.65;100400.16;1670181;85;20240;-74
2021/07/26 06:02:40;;;;;;;;;;;;;;;27.19;58.42;100397.17;1667343;85;20232;-74
2021/07/26 06:05:06;;;;;;;;;;;;;;;27.10;58.27;100401.12;1670278;85;20227;-74
2021/07/26 06:07:32;;;;;;;;;;;;;;;26.83;58.08;100407.04;1666049;85;20232;-74
2021/07/26 06:09:58;;;;;;;;;;;;;;;26.65;57.97;100414.78;1670632;85;20498;-74
2021/07/26 06:12:26;;;;;;;;;;;;;;;26.50;57.99;100419.61;1670228;85;20825;-74
2021/07/26 06:14:53;;;;;;;;;;;;;;;26.32;57.88;100421.18;1669729;85;20264;-74
2021/07/26 06:17:19;;;;;;;;;;;;;;;26.17;57.83;100415.33;1670171;85;20326;-74
2021/07/26 06:19:45;;;;;;;;;;;;;;;25.97;57.76;100409.08;1660715;84;20293;-74
2021/07/26 06:22:11;;;;;;;;;;;;;;;25.78;57.79;100414.70;1668693;85;20909;-74
2021/07/26 06:24:37;;;;;;;;;;;;;;;25.63;57.84;100416.77;1668752;85;20767;-74
2021/07/26 06:27:03;;;;;;;;;;;;;;;25.55;57.90;100404.16;1661647;84;20289;-76
2021/07/26 06:29:29;;;;;;;;;;;;;;;25.54;57.83;100410.42;1643560;85;20257;-76
2021/07/26 06:31:57;;;;;;;;;;;;;;;25.55;57.80;100410.77;1670332;84;20223;-76
2021/07/26 06:34:23;;;;;;;;;;;;;;;25.55;57.71;100409.94;1644977;85;20201;-76
2021/07/26 06:36:51;;;;;;;;;;;;;;;25.66;57.73;100413.42;1656310;85;20630;-76
2021/07/26 06:39:17;;;;;;;;;;;;;;;25.69;57.53;100412.33;1653562;86;20277;-76
2021/07/26 06:41:43;;;;;;;;;;;;;;;25.83;57.64;100419.98;1646763;86;20243;-76
2021/07/26 06:44:09;;;;;;;;;;;;;;;25.99;57.45;100421.72;1659998;85;20137;-76
2021/07/26 06:46:36;;;;;;;;;;;;;;;26.17;57.45;100427.25;1648489;86;20191;-76
2021/07/26 06:49:03;;;;;;;;;;;;;;;26.45;57.36;100422.30;1604615;86;20157;-76
2021/07/26 06:51:29;;;;;;;;;;;;;;;26.72;57.05;100423.89;1653690;86;20200;-76
2021/07/26 06:53:55;;;;;;;;;;;;;;;27.04;56.93;100424.58;1653252;86;20198;-76
2021/07/26 06:56:21;;;;;;;;;;;;;;;27.29;56.84;100427.23;1654464;86;21624;-76
2021/07/26 06:58:47;;;;;;;;;;;;;;;27.60;56.76;100428.00;1645802;86;20131;-76
2021/07/26 07:01:15;;;;;;;;;;;;;;;27.93;56.54;100429.41;1654576;86;20157;-76
2021/07/26 07:03:42;;;;;;;;;;;;;;;28.26;56.43;100421.97;1653448;85;20139;-76
2021/07/26 07:06:10;;;;;;;;;;;;;;;28.63;56.25;100430.80;1653473;85;20165;-76
2021/07/26 07:08:37;;;;;;;;;;;;;;;28.76;55.89;100422.99;1652841;86;20113;-76
2021/07/26 07:11:11;;;;;;;;;;;;;;;28.70;55.77;100419.58;1657842;86;20157;-76
2021/07/26 07:13:40;;;;;;;;;;;;;;;28.66;55.78;100424.36;1655221;85;20444;-76
2021/07/26 07:16:14;;;;;;;;;;;;;;;28.70;55.66;100420.42;1652849;86;20116;-76
2021/07/26 07:18:40;;;;;;;;;;;;;;;28.83;55.76;100418.30;1642941;86;20219;-76
2021/07/26 07:21:06;;;;;;;;;;;;;;;28.95;55.40;100423.78;1653753;86;20223;-76
2021/07/26 07:23:33;;;;;;;;;;;;;;;28.99;55.24;100429.66;1653378;86;20163;-76
2021/07/26 07:26:00;;;;;;;;;;;;;;;28.98;55.26;100434.63;1648430;85;20338;-76
2021/07/26 07:28:26;;;;;;;;;;;;;;;29.21;55.33;100437.22;1645253;86;20128;-76
2021/07/26 07:30:52;;;;;;;;;;;;;;;29.45;55.17;100439.84;1649272;86;20168;-76
2021/07/26 07:33:19;;;;;;;;;;;;;;;29.65;54.89;100438.70;1632178;85;20187;-76
2021/07/26 07:35:46;;;;;;;;;;;;;;;29.78;54.87;100429.83;1617835;87;20668;-76
2021/07/26 07:38:12;;;;;;;;;;;;;;;29.72;54.60;100430.93;1613379;87;20792;-76
2021/07/26 07:40:38;;;;;;;;;;;;;;;29.63;54.86;100434.85;1573789;89;20226;-76
2021/07/26 07:43:05;;;;;;;;;;;;;;;29.40;54.63;100437.59;1598713;88;20198;-76
2021/07/26 07:45:32;;;;;;;;;;;;;;;29.48;54.57;100431.06;1587746;88;20328;-76
2021/07/26 07:47:58;;;;;;;;;;;;;;;29.68;54.52;100426.89;1594260;88;20152;-76
2021/07/26 07:50:25;;;;;;;;;;;;;;;29.87;54.37;100426.25;1588895;88;20220;-76
2021/07/26 07:52:53;;;;;;;;;;;;;;;30.21;54.40;100426.86;1591276;88;20214;-76
2021/07/26 07:55:19;;;;;;;;;;;;;;;30.45;54.03;100429.70;1596613;88;20217;-76
2021/07/26 07:57:48;;;;;;;;;;;;;;;30.70;53.61;100433.35;1594252;88;20632;-76
2021/07/26 08:00:14;;;;;;;;;;;;;;;30.78;53.45;100437.40;1598176;88;20156;-76
2021/07/26 08:02:41;;;;;;;;;;;;;;;30.68;52.98;100442.02;1595582;88;20159;-76
2021/07/26 08:05:08;;;;;;;;;;;;;;;30.70;53.55;100439.19;1598257;88;20160;-76
2021/07/26 08:07:34;;;;;;;;;;;;;;;30.92;53.31;100438.64;1624499;86;20132;-76
2021/07/26 08:10:00;;;;;;;;;;;;;;;31.03;53.06;100438.35;1632363;87;20426;-76
2021/07/26 08:12:34;;;;;;;;;;;;;;;31.36;52.82;100433.95;1623124;87;20144;-76
2021/07/26 08:15:01;;;;;;;;;;;;;;;31.45;52.54;100430.31;1623886;87;20158;-77
2021/07/26 08:17:27;;;;;;;;;;;;;;;31.52;52.56;100427.32;1632673;87;20541;-77
2021/07/26 08:19:54;;;;;;;;;;;;;;;31.68;52.27;100433.73;1631070;87;20438;-77
2021/07/26 08:22:20;;;;;;;;;;;;;;;31.50;51.96;100426.64;1618540;86;20103;-77
2021/07/26 08:24:46;;;;;;;;;;;;;;;31.56;52.02;100421.14;1586886;88;20234;-77
2021/07/26 08:27:12;;;;;;;;;;;;;;;31.65;51.93;100420.16;1595448;88;20225;-77
2021/07/26 08:29:38;;;;;;;;;;;;;;;31.77;51.90;100413.98;1617939;86;20209;-77
2021/07/26 08:32:13;;;;;;;;;;;;;;;31.92;51.72;100410.98;1612739;87;20475;-77
2021/07/26 08:34:39;;;;;;;;;;;;;;;32.03;51.34;100416.50;1648786;85;20348;-77
2021/07/26 08:37:05;;;;;;;;;;;;;;;32.05;51.27;100418.00;1613455;88;20152;-77
2021/07/26 08:39:31;;;;;;;;;;;;;;;32.06;51.29;100414.33;1665340;85;20164;-77
2021/07/26 08:41:57;;;;;;;;;;;;;;;31.99;51.04;100416.00;1655282;85;20642;-77
2021/07/26 08:44:23;;;;;;;;;;;;;;;31.84;50.88;100414.49;1660646;85;20286;-77
2021/07/26 08:46:51;;;;;;;;;;;;;;;31.79;50.64;100416.83;1658180;85;20486;-77
2021/07/26 08:49:19;;;;;;;;;;;;;;;31.70;50.49;100427.21;1662368;85;20500;-77
2021/07/26 08:51:45;;;;;;;;;;;;;;;31.45;50.08;100426.80;1659446;85;21062;-77
2021/07/26 08:54:13;;;;;;;;;;;;;;;31.25;50.11;100426.24;1663793;85;20682;-77
2021/07/26 08:56:40;;;;;;;;;;;;;;;31.11;50.36;100428.20;1661874;85;20472;-77
2021/07/26 08:59:09;;;;;;;;;;;;;;;30.99;49.95;100427.65;1664724;86;20491;-76
2021/07/26 09:01:43;;;;;;;;;;;;;;;31.14;50.12;100428.75;1663053;86;20471;-76
2021/07/26 09:04:12;;;;;;;;;;;;;;;31.41;50.00;100423.62;1659465;85;20483;-76
2021/07/26 09:06:38;;;;;;;;;;;;;;;31.65;49.29;100426.84;1661716;85;20582;-76
2021/07/26 09:09:07;;;;;;;;;;;;;;;31.86;49.24;100425.02;1665440;85;20221;-76
2021/07/26 09:11:44;;;;;;;;;;;;;;;31.69;49.51;100417.52;1660844;86;20540;-76
2021/07/26 09:14:10;;;;;;;;;;;;;;;31.52;49.24;100419.30;1660526;85;20445;-76
2021/07/26 09:16:36;;;;;;;;;;;;;;;31.35;48.92;100422.94;1660499;85;20164;-76
2021/07/26 09:19:11;;;;;;;;;;;;;;;31.08;48.93;100436.03;1656230;85;20598;-76
2021/07/26 09:21:54;;;;;;;;;;;;;;;30.73;48.81;100434.87;1653834;85;20447;-76
2021/07/26 09:24:26;;;;;;;;;;;;;;;30.33;48.62;100424.27;1638313;87;20518;-76
2021/07/26 09:26:52;;;;;;;;;;;;;;;29.91;48.58;100427.61;1656493;85;20527;-76
2021/07/26 09:29:29;;;;;;;;;;;;;;;29.78;48.66;100427.66;1665371;86;20620;-76
2021/07/26 09:31:59;;;;;;;;;;;;;;;29.65;48.53;100430.20;1657459;85;20127;-76
2021/07/26 09:34:36;;;;;;;;;;;;;;;29.62;48.51;100436.37;1649917;85;20511;-76
2021/07/26 09:37:03;;;;;;;;;;;;;;;29.57;48.41;100430.65;1653580;86;20124;-76
2021/07/26 09:39:30;;;;;;;;;;;;;;;29.48;48.30;100431.06;1642996;86;20726;-76
2021/07/26 09:41:58;;;;;;;;;;;;;;;29.40;48.28;100421.61;1647830;86;20606;-76
2021/07/26 09:44:26;;;;;;;;;;;;;;;29.46;48.34;100425.53;1650382;86;20420;-76
2021/07/26 09:46:55;;;;;;;;;;;;;;;29.32;48.28;100426.85;1656254;86;20558;-76
2021/07/26 09:49:21;;;;;;;;;;;;;;;29.35;48.24;100425.72;1645557;86;20599;-76
2021/07/26 09:52:05;;;;;;;;;;;;;;;29.43;48.28;100424.50;1655861;86;20154;-76
2021/07/26 09:54:49;;;;;;;;;;;;;;;29.54;48.12;100430.95;1648451;86;20116;-76
2021/07/26 09:57:20;;;;;;;;;;;;;;;29.64;48.07;100423.70;1650771;86;20143;-76
2021/07/26 10:00:02;;;;;;;;;;;;;;;29.83;47.84;100426.21;1646788;86;20133;-76
2021/07/26 10:02:31;;;;;;;;;;;;;;;29.83;47.79;100426.21;1652699;86;20117;-76
2021/07/26 10:04:56;;;;;;;;;;;;;;;29.78;47.51;100419.66;1649299;86;20097;-76
2021/07/26 10:07:22;;;;;;;;;;;;;;;29.71;47.53;100423.43;1650776;85;20145;-76
2021/07/26 10:09:48;;;;;;;;;;;;;;;29.64;47.47;100429.02;1655450;86;20159;-76
2021/07/26 10:12:19;;;;;;;;;;;;;;;29.52;47.45;100427.11;1658623;86;20256;-77
2021/07/26 10:14:55;;;;;;;;;;;;;;;29.44;47.60;100425.69;1653751;86;20461;-77
2021/07/26 10:17:21;;;;;;;;;;;;;;;29.39;47.63;100430.59;1660257;85;20219;-77
2021/07/26 10:20:07;;;;;;;;;;;;;;;29.34;47.60;100423.55;1654697;86;20189;-77
2021/07/26 10:22:34;;;;;;;;;;;;;;;29.35;47.36;100418.56;1656546;86;20654;-77
2021/07/26 10:25:09;;;;;;;;;;;;;;;29.29;47.17;100415.16;1649604;86;20248;-77
2021/07/26 10:27:37;;;;;;;;;;;;;;;29.25;47.44;100413.79;1653708;86;20215;-77
2021/07/26 10:30:03;;;;;;;;;;;;;;;29.27;47.43;100421.13;1657398;86;20284;-77
2021/07/26 10:32:32;;;;;;;;;;;;;;;29.22;47.27;100414.09;1658586;85;20452;-77
2021/07/26 10:35:16;;;;;;;;;;;;;;;29.22;47.30;100402.10;1651337;86;20180;-77
2021/07/26 10:37:45;;;;;;;;;;;;;;;29.18;47.31;100404.72;1657710;86;20448;-77
2021/07/26 10:40:33;;;;;;;;;;;;;;;29.16;47.34;100404.03;1652232;86;20180;-77
2021/07/26 10:43:03;;;;;;;;;;;;;;;29.24;47.38;100405.45;1649594;86;20338;-77
2021/07/26 10:45:36;;;;;;;;;;;;;;;29.30;47.30;100404.36;1651140;86;20141;-77
2021/07/26 10:48:31;;;;;;;;;;;;;;;29.33;46.95;100403.22;1644734;86;20202;-77
2021/07/26 10:51:00;;;;;;;;;;;;;;;29.32;47.12;100408.20;1649446;86;20161;-77
2021/07/26 10:53:38;;;;;;;;;;;;;;;29.37;47.02;100413.92;1655420;86;20441;-77
2021/07/26 10:56:13;;;;;;;;;;;;;;;29.38;47.14;100412.94;1649906;86;20196;-77
2021/07/26 10:58:43;;;;;;;;;;;;;;;29.39;46.83;100413.28;1651048;86;20209;-77
2021/07/26 11:01:26;;;;;;;;;;;;;;;29.36;46.89;100414.07;1653706;86;20219;-77
2021/07/26 11:03:53;;;;;;;;;;;;;;;29.39;46.79;100409.78;1586179;89;20192;-77
2021/07/26 11:06:39;;;;;;;;;;;;;;;29.40;46.90;100411.45;1582452;90;20177;-77
2021/07/26 11:09:20;;;;;;;;;;;;;;;29.41;46.77;100410.00;1528760;91;20245;-77
2021/07/26 11:11:49;;;;;;;;;;;;;;;29.33;46.56;100405.39;1542665;90;20219;-77
2021/07/26 11:14:15;;;;;;;;;;;;;;;29.32;46.76;100408.20;1558332;90;20484;-77
2021/07/26 11:16:59;;;;;;;;;;;;;;;29.39;46.59;100409.78;1589910;88;20171;-77
2021/07/26 11:19:55;;;;;;;;;;;;;;;29.39;46.69;100409.78;1596749;89;20140;-77
2021/07/26 11:22:23;;;;;;;;;;;;;;;29.38;46.88;100409.44;1590146;89;20143;-77
2021/07/26 11:24:56;;;;;;;;;;;;;;;29.40;46.67;100403.46;1590987;89;20187;-77
2021/07/26 11:27:26;;;;;;;;;;;;;;;29.44;46.64;100397.71;1607508;89;20169;-77
2021/07/26 11:29:54;;;;;;;;;;;;;;;29.48;46.52;100396.42;1585025;89;20118;-77
2021/07/26 11:32:24;;;;;;;;;;;;;;;29.48;46.30;100392.42;1602672;89;20159;-77
2021/07/26 11:34:58;;;;;;;;;;;;;;;29.39;46.44;100399.95;1597415;88;20165;-77
2021/07/26 11:37:32;;;;;;;;;;;;;;;29.27;46.49;100390.51;1577873;89;20109;-77
2021/07/26 11:40:00;;;;;;;;;;;;;;;29.32;46.54;100397.55;1548597;91;20107;-77
2021/07/26 11:42:34;;;;;;;;;;;;;;;29.36;46.31;100400.26;1594047;89;20139;-77
2021/07/26 11:45:11;;;;;;;;;;;;;;;29.35;46.14;100402.58;1601391;89;20116;-77
2021/07/26 11:47:38;;;;;;;;;;;;;;;29.33;46.13;100399.23;1591610;87;20141;-77
2021/07/26 11:50:10;;;;;;;;;;;;;;;29.32;46.08;100394.89;1664578;85;20117;-77
2021/07/26 11:52:36;;;;;;;;;;;;;;;29.37;46.07;100391.28;1666802;86;20165;-77
2021/07/26 11:55:13;;;;;;;;;;;;;;;29.47;46.09;100389.42;1663990;85;20133;-77
2021/07/26 11:58:03;;;;;;;;;;;;;;;29.63;46.07;100392.20;1665268;85;20161;-77
2021/07/26 12:00:31;;;;;;;;;;;;;;;29.78;45.94;100387.67;1663444;85;20135;-77
2021/07/26 12:02:58;;;;;;;;;;;;;;;29.93;45.70;100389.64;1659539;85;20175;-77
2021/07/26 12:05:33;;;;;;;;;;;;;;;30.07;45.65;100384.28;1664155;85;20129;-79
2021/07/26 12:07:58;;;;;;;;;;;;;;;30.13;45.48;100378.32;1659015;86;20650;-78
2021/07/26 12:10:33;;;;;;;;;;;;;;;30.18;45.34;100377.33;1665571;85;20601;-78
2021/07/26 12:13:17;;;;;;;;;;;;;;;30.24;45.32;100374.53;1659549;85;20173;-78
2021/07/26 12:15:44;;;;;;;;;;;;;;;30.26;45.20;100372.05;1665668;85;20165;-78
2021/07/26 12:18:15;;;;;;;;;;;;;;;30.30;45.28;100372.56;1656877;85;20163;-78
2021/07/26 12:20:54;;;;;;;;;;;;;;;30.30;45.43;100361.39;1663820;85;20362;-78
2021/07/26 12:23:33;;;;;;;;;;;;;;;30.31;45.13;100364.91;1655526;85;20184;-78
2021/07/26 12:26:08;;;;;;;;;;;;;;;30.34;44.95;100367.25;1663295;85;20225;-78
2021/07/26 12:28:54;;;;;;;;;;;;;;;30.33;44.91;100371.41;1659132;85;20243;-78
2021/07/26 12:31:31;;;;;;;;;;;;;;;30.34;44.93;100368.59;1663899;85;20260;-78
2021/07/26 12:34:21;;;;;;;;;;;;;;;30.33;44.75;100370.08;1650613;85;20168;-78
2021/07/26 12:36:46;;;;;;;;;;;;;;;30.27;44.77;100366.20;1643964;86;20232;-78
2021/07/26 12:39:12;;;;;;;;;;;;;;;30.23;44.75;100365.69;1648843;86;20237;-78
2021/07/26 12:41:44;;;;;;;;;;;;;;;30.23;44.66;100363.02;1657908;86;20468;-78
2021/07/26 12:44:11;;;;;;;;;;;;;;;30.21;44.70;100367.67;1651778;86;20224;-78